Grandillusion — GYST5 — position and weather

sailwx.info

Track history (hours):
 
Tides and Currents Weather Stations Pressure Air Temp Water Temp Dewpoint Dewpoint Depression Visibility Wind Speed Wind Dir Waves Ship Positions

Grandillusion

Last reported at 2018-Jul-18 04:39 UTC. Time now 2018-Jul-18 14:33 UTC.
Position N 40°45' E 013°53'.

Length 42 m; draft 7.5 m.

Type: Pleasure craft. MMSI: 339498000.

Date/timePositionNaut miles runAvg speedWind from/ knotsBaromVisibWave heightAir tempDewpointWater temp
2018-Jul-18 04:39N 40°45' E 013°53'0 0.4
2018-Jul-18 04:31N 40°45' E 013°53'0 0.0
2018-Jul-18 04:00N 40°45' E 013°53'0 0.0
2018-Jul-18 03:25N 40°45' E 013°53'0 0.0
2018-Jul-18 02:59N 40°45' E 013°53'0 0.0
2018-Jul-18 02:30N 40°45' E 013°53'0 0.0
2018-Jul-18 01:56N 40°45' E 013°53'0 0.0
2018-Jul-18 01:29N 40°45' E 013°53'0 0.0
2018-Jul-18 01:00N 40°45' E 013°53'0 0.0
2018-Jul-18 00:30N 40°45' E 013°53'0 0.0
2018-Jul-17 23:58N 40°45' E 013°53'0 0.0
2018-Jul-17 23:27N 40°45' E 013°53'0 0.0
2018-Jul-17 22:57N 40°45' E 013°53'0 0.0
2018-Jul-17 22:29N 40°45' E 013°53'0 0.0
2018-Jul-17 22:00N 40°45' E 013°53'0 0.0
2018-Jul-17 21:30N 40°45' E 013°53'0 0.0
2018-Jul-17 15:21N 40°45' E 013°53'0 0.0
2018-Jul-17 14:59N 40°45' E 013°53'0 0.0
2018-Jul-17 14:29N 40°45' E 013°53'0 0.0
2018-Jul-17 13:58N 40°45' E 013°53'0 0.0
2018-Jul-17 13:30N 40°45' E 013°53'0 0.0
2018-Jul-17 13:00N 40°45' E 013°53'0 0.0
2018-Jul-17 12:30N 40°45' E 013°53'0 0.0
2018-Jul-17 12:00N 40°45' E 013°53'0 0.0
2018-Jul-17 11:30N 40°45' E 013°53'0 0.0
2018-Jul-17 11:00N 40°45' E 013°53'0 0.0
2018-Jul-17 10:30N 40°45' E 013°53'0 0.0
2018-Jul-17 10:00N 40°45' E 013°53'0 0.0
2018-Jul-17 09:30N 40°45' E 013°53'0 0.0
2018-Jul-17 09:00N 40°45' E 013°53'0 0.0
2018-Jul-17 08:29N 40°45' E 013°53'0 0.0
2018-Jul-17 07:57N 40°45' E 013°53'0 0.0
2018-Jul-17 07:29N 40°45' E 013°53'0 0.0
2018-Jul-17 06:59N 40°45' E 013°53'0 0.0
2018-Jul-17 06:30N 40°45' E 013°53'0 0.0
2018-Jul-17 06:00N 40°45' E 013°53'0 0.0
2018-Jul-17 05:30N 40°45' E 013°53'0 0.0
2018-Jul-17 05:00N 40°45' E 013°53'0 0.0
2018-Jul-17 04:30N 40°45' E 013°53'0 0.0
2018-Jul-17 04:00N 40°45' E 013°53'0 0.0
2018-Jul-17 03:30N 40°45' E 013°53'0 0.0
2018-Jul-17 03:00N 40°45' E 013°53'0 0.0
2018-Jul-17 02:30N 40°45' E 013°53'0 0.0
2018-Jul-17 02:00N 40°45' E 013°53'0 0.0
2018-Jul-17 01:29N 40°45' E 013°53'0 0.0
2018-Jul-17 00:59N 40°45' E 013°53'0 0.0
2018-Jul-17 00:30N 40°45' E 013°53'0 0.0
2018-Jul-16 23:30N 40°45' E 013°53'0 0.0
2018-Jul-16 23:00N 40°45' E 013°53'0 0.0
2018-Jul-16 22:30N 40°45' E 013°53'0 0.0
2018-Jul-16 22:00N 40°45' E 013°53'0 0.0
2018-Jul-16 21:30N 40°45' E 013°53'0 0.0
2018-Jul-16 21:00N 40°45' E 013°53'0 0.0
2018-Jul-16 20:31N 40°45' E 013°53'0 0.0
2018-Jul-16 20:00N 40°45' E 013°53'0 0.0
2018-Jul-16 19:30N 40°45' E 013°53'0 0.0
2018-Jul-16 19:00N 40°45' E 013°53'0 0.0
2018-Jul-16 18:30N 40°45' E 013°53'0 0.0
2018-Jul-16 18:01N 40°45' E 013°53'0 0.0
2018-Jul-16 17:30N 40°45' E 013°53'0 0.0
2018-Jul-16 17:01N 40°45' E 013°53'0 0.0
2018-Jul-16 16:30N 40°45' E 013°53'0 0.0
2018-Jul-16 16:00N 40°45' E 013°53'2 3.4
2018-Jul-16 15:30N 40°46' E 013°56'612.6
2018-Jul-16 15:00N 40°44' E 014°04'613.0
2018-Jul-16 14:30N 40°44' E 014°12'713.1
2018-Jul-16 14:00N 40°43' E 014°21'4 0.2
2018-Jul-15 17:23N 40°41' E 014°26'513.3
2018-Jul-15 17:00N 40°39' E 014°20'5 8.4
2018-Jul-15 16:28N 40°34' E 014°22'613.0
2018-Jul-15 16:01N 40°37' E 014°29'1 1.6
2018-Jul-15 15:30N 40°37' E 014°30'0 0.0
2018-Jul-15 15:00N 40°37' E 014°30'0 0.0
2018-Jul-15 14:30N 40°37' E 014°30'0 0.0
2018-Jul-15 14:00N 40°37' E 014°30'0 0.0
2018-Jul-15 13:30N 40°37' E 014°30'0 0.0
2018-Jul-15 13:00N 40°37' E 014°30'0 0.0
2018-Jul-15 12:30N 40°37' E 014°30'4 8.4
2018-Jul-15 12:00N 40°36' E 014°25'612.1
2018-Jul-15 11:30N 40°34' E 014°17'2 3.7
2018-Jul-15 11:00N 40°33' E 014°15'0 0.0
2018-Jul-15 10:30N 40°33' E 014°15'0 0.0
2018-Jul-15 10:00N 40°33' E 014°15'0 0.0
2018-Jul-15 09:29N 40°33' E 014°15'0 0.0
2018-Jul-15 09:00N 40°33' E 014°15'0 0.0
2018-Jul-15 08:30N 40°33' E 014°15'0 0.0
2018-Jul-15 08:00N 40°33' E 014°15'0 0.0
2018-Jul-15 07:30N 40°33' E 014°15'0 0.0
2018-Jul-15 07:00N 40°33' E 014°15'0 0.0
2018-Jul-15 06:31N 40°33' E 014°15'0 0.0
2018-Jul-15 06:00N 40°33' E 014°15'0 0.0
2018-Jul-15 05:29N 40°33' E 014°15'0 0.0
2018-Jul-15 05:00N 40°33' E 014°15'0 0.0
2018-Jul-15 04:30N 40°33' E 014°15'0 0.0
2018-Jul-15 04:00N 40°33' E 014°15'0 0.0
2018-Jul-15 03:30N 40°33' E 014°15'0 0.0
2018-Jul-15 03:00N 40°33' E 014°15'0 0.0
2018-Jul-15 02:30N 40°33' E 014°15'0 0.0
2018-Jul-15 02:00N 40°33' E 014°15'0 0.0
2018-Jul-15 01:30N 40°33' E 014°15'0 0.0
2018-Jul-15 01:00N 40°33' E 014°15'0 0.0
2018-Jul-15 00:30N 40°33' E 014°15'0 0.0
2018-Jul-15 00:00N 40°33' E 014°15'0 0.0
2018-Jul-14 23:28N 40°33' E 014°15'0 0.0
2018-Jul-14 23:00N 40°33' E 014°15'0 0.0
2018-Jul-14 22:30N 40°33' E 014°15'0 0.0
2018-Jul-14 22:00N 40°33' E 014°15'0 0.0
2018-Jul-14 21:30N 40°33' E 014°15'0 0.0
2018-Jul-14 21:00N 40°33' E 014°15'0 0.0
2018-Jul-14 20:30N 40°33' E 014°15'0 0.0
2018-Jul-14 20:00N 40°33' E 014°15'0 0.0
2018-Jul-14 19:30N 40°33' E 014°15'0 0.0
2018-Jul-14 19:01N 40°33' E 014°15'0 0.0
2018-Jul-14 18:30N 40°33' E 014°15'0 0.0
2018-Jul-14 18:00N 40°33' E 014°15'0 0.0
2018-Jul-14 17:30N 40°33' E 014°15'0 0.0
2018-Jul-14 17:00N 40°33' E 014°15'0 0.0
2018-Jul-14 16:30N 40°33' E 014°15'0 0.0
2018-Jul-14 15:59N 40°33' E 014°15'0 0.0
2018-Jul-14 15:30N 40°33' E 014°15'0 0.0
2018-Jul-14 15:00N 40°33' E 014°15'0 0.0
2018-Jul-14 14:30N 40°33' E 014°15'0 0.0
2018-Jul-14 13:30N 40°33' E 014°15'0 0.0
2018-Jul-14 13:01N 40°33' E 014°15'0 0.0
2018-Jul-14 12:30N 40°33' E 014°15'0 0.0
2018-Jul-14 12:00N 40°33' E 014°15'0 0.0
2018-Jul-14 11:30N 40°33' E 014°15'0 0.0
2018-Jul-14 11:00N 40°33' E 014°15'0 0.0
2018-Jul-14 10:30N 40°33' E 014°15'0 0.0
2018-Jul-14 10:00N 40°33' E 014°15'0 0.0
2018-Jul-14 09:30N 40°33' E 014°15'0 0.0
2018-Jul-14 09:00N 40°33' E 014°15'0 0.0
2018-Jul-14 08:31N 40°33' E 014°15'0 0.0
2018-Jul-14 08:00N 40°33' E 014°15'0 0.0
2018-Jul-14 07:30N 40°33' E 014°15'0 0.0
2018-Jul-14 07:00N 40°33' E 014°15'0 0.0
2018-Jul-14 06:30N 40°33' E 014°15'0 0.0
2018-Jul-14 06:00N 40°33' E 014°15'0 0.0
2018-Jul-14 05:30N 40°33' E 014°15'0 0.0
2018-Jul-14 05:00N 40°33' E 014°15'0 0.0
2018-Jul-14 04:30N 40°33' E 014°15'0 0.0
2018-Jul-14 04:00N 40°33' E 014°15'0 0.0
2018-Jul-14 03:31N 40°33' E 014°15'0 0.0
2018-Jul-14 03:00N 40°33' E 014°15'0 0.0
2018-Jul-14 02:31N 40°33' E 014°15'0 0.0
2018-Jul-14 02:00N 40°33' E 014°15'0 0.0
2018-Jul-14 01:30N 40°33' E 014°15'0 0.0
2018-Jul-14 01:00N 40°33' E 014°15'0 0.0
2018-Jul-14 00:30N 40°33' E 014°15'0 0.0
2018-Jul-14 00:00N 40°33' E 014°15'0 0.0
2018-Jul-13 23:31N 40°33' E 014°15'0 0.0
2018-Jul-13 23:00N 40°33' E 014°15'0 0.0
2018-Jul-13 22:30N 40°33' E 014°15'0 0.0
2018-Jul-13 22:00N 40°33' E 014°15'0 0.0
2018-Jul-13 21:31N 40°33' E 014°15'0 0.0
2018-Jul-13 21:00N 40°33' E 014°15'0 0.0
2018-Jul-13 20:30N 40°33' E 014°15'0 0.0
2018-Jul-13 19:58N 40°33' E 014°15'0 0.0
2018-Jul-13 19:30N 40°33' E 014°15'0 0.0
2018-Jul-13 19:00N 40°33' E 014°15'0 0.0
2018-Jul-13 18:30N 40°33' E 014°15'0 0.0
2018-Jul-13 18:00N 40°33' E 014°15'0 0.0
2018-Jul-13 17:30N 40°33' E 014°15'0 0.8
2018-Jul-13 16:59N 40°34' E 014°15'2 3.5
2018-Jul-13 16:30N 40°35' E 014°16'612.2
2018-Jul-13 16:00N 40°41' E 014°15'612.7
2018-Jul-13 15:30N 40°48' E 014°14'2 4.3
2018-Jul-13 15:00N 40°50' E 014°14'0 0.0
2018-Jul-13 14:30N 40°50' E 014°14'0 0.0
2018-Jul-13 13:30N 40°50' E 014°14'0 0.0
2018-Jul-13 13:00N 40°50' E 014°14'0 0.0
2018-Jul-13 12:30N 40°50' E 014°14'0 0.0
2018-Jul-13 11:59N 40°50' E 014°14'0 0.0
2018-Jul-13 11:30N 40°50' E 014°14'0 0.0
2018-Jul-13 11:01N 40°50' E 014°14'0 0.0
2018-Jul-13 10:30N 40°50' E 014°14'0 0.0
2018-Jul-13 10:00N 40°50' E 014°14'0 0.0
2018-Jul-13 09:30N 40°50' E 014°14'0 0.0
2018-Jul-13 09:00N 40°50' E 014°14'0 0.0
2018-Jul-13 08:29N 40°50' E 014°14'0 0.0
2018-Jul-13 08:01N 40°50' E 014°14'0 0.0
2018-Jul-13 07:30N 40°50' E 014°14'0 0.0
2018-Jul-13 07:00N 40°50' E 014°14'0 0.0
2018-Jul-13 06:29N 40°50' E 014°14'0 0.0
2018-Jul-13 06:00N 40°50' E 014°14'0 0.0
2018-Jul-13 05:30N 40°50' E 014°14'0 0.0
2018-Jul-13 05:00N 40°50' E 014°14'0 0.0
2018-Jul-13 04:30N 40°50' E 014°14'0 0.0
2018-Jul-13 04:00N 40°50' E 014°14'0 0.0
2018-Jul-13 03:30N 40°50' E 014°14'0 0.0
2018-Jul-13 03:01N 40°50' E 014°14'0 0.0
2018-Jul-13 02:30N 40°50' E 014°14'0 0.0
2018-Jul-13 02:00N 40°50' E 014°14'0 0.0
2018-Jul-13 01:30N 40°50' E 014°14'0 0.0
2018-Jul-13 01:00N 40°50' E 014°14'0 0.0
2018-Jul-13 00:30N 40°50' E 014°14'0 0.0
2018-Jul-13 00:00N 40°50' E 014°14'0 0.0
2018-Jul-12 23:30N 40°50' E 014°14'0 0.0
2018-Jul-12 23:01N 40°50' E 014°14'0 0.0
2018-Jul-12 22:30N 40°50' E 014°14'0 0.0
2018-Jul-12 21:58N 40°50' E 014°14'0 0.0
2018-Jul-12 21:30N 40°50' E 014°14'0 0.0
2018-Jul-12 21:00N 40°50' E 014°14'0 0.0
2018-Jul-12 20:30N 40°50' E 014°14'0 0.0
2018-Jul-12 19:59N 40°50' E 014°14'0 0.0
2018-Jul-12 19:31N 40°50' E 014°14'0 0.0
2018-Jul-12 18:59N 40°50' E 014°14'0 0.0
2018-Jul-12 18:30N 40°50' E 014°14'0 0.0
2018-Jul-12 18:00N 40°50' E 014°14'0 0.0
2018-Jul-12 17:31N 40°50' E 014°14'0 0.0
2018-Jul-12 17:00N 40°50' E 014°14'0 0.1
2018-Jul-12 16:31N 40°50' E 014°14'5 9.7
2018-Jul-12 16:01N 40°46' E 014°09'713.0
2018-Jul-12 15:30N 40°47' E 014°00'813.7
2018-Jul-12 14:57N 40°51' E 013°52'  
2018-Jul-10 01:43N 40°55' E 012°58'0 0.0
2018-Jul-10 01:27N 40°55' E 012°58'0 0.0
2018-Jul-10 00:58N 40°55' E 012°58'0 0.0
2018-Jul-10 00:22N 40°55' E 012°58'0 0.0
2018-Jul-10 00:00N 40°55' E 012°58'0 0.0
2018-Jul-09 23:31N 40°55' E 012°58'0 0.0
2018-Jul-09 23:00N 40°55' E 012°58'0 0.0
2018-Jul-09 22:30N 40°55' E 012°58'0 0.0
2018-Jul-09 22:00N 40°55' E 012°58'47 3.3
2018-Jul-09 07:39N 40°41' E 013°57'213.4
2018-Jul-09 07:30N 40°42' E 013°60'713.4
2018-Jul-09 07:00N 40°45' E 014°08'612.7
2018-Jul-09 06:30N 40°49' E 014°14'1 1.4
2018-Jul-09 06:00N 40°50' E 014°13'0 0.0
2018-Jul-09 05:30N 40°50' E 014°14'0 0.0
2018-Jul-09 05:00N 40°50' E 014°14'0 0.0
2018-Jul-09 04:30N 40°50' E 014°13'0 0.0
2018-Jul-09 04:00N 40°50' E 014°14'0 0.0
2018-Jul-09 03:30N 40°50' E 014°14'0 0.0
2018-Jul-09 03:01N 40°50' E 014°13'0 0.0
2018-Jul-09 02:30N 40°50' E 014°13'0 0.0
2018-Jul-09 02:00N 40°50' E 014°13'0 0.0
2018-Jul-09 01:30N 40°50' E 014°13'0 0.0
2018-Jul-09 01:00N 40°50' E 014°14'0 0.0
2018-Jul-09 00:30N 40°50' E 014°13'0 0.0
2018-Jul-09 00:00N 40°50' E 014°13'0 0.0
2018-Jul-08 23:31N 40°50' E 014°14'0 0.0
2018-Jul-08 23:00N 40°50' E 014°14'0 0.0
2018-Jul-08 22:31N 40°50' E 014°13'0 0.0
2018-Jul-08 22:00N 40°50' E 014°13'0 0.0
2018-Jul-08 21:30N 40°50' E 014°14'0 0.0
2018-Jul-08 21:00N 40°50' E 014°13'0 0.0
2018-Jul-08 20:30N 40°50' E 014°13'0 0.0
2018-Jul-08 20:01N 40°50' E 014°13'0 0.0
2018-Jul-08 19:31N 40°50' E 014°13'0 0.0
2018-Jul-08 19:01N 40°50' E 014°13'0 0.0
2018-Jul-08 18:30N 40°50' E 014°13'0 0.0
2018-Jul-08 18:00N 40°50' E 014°14'0 0.0
2018-Jul-08 17:31N 40°50' E 014°13'0 0.0
2018-Jul-08 17:00N 40°50' E 014°13'0 0.0
2018-Jul-08 16:30N 40°50' E 014°13'0 0.0
2018-Jul-08 16:00N 40°50' E 014°13'0 0.0
2018-Jul-08 15:31N 40°50' E 014°13'0 0.0
2018-Jul-08 15:00N 40°50' E 014°13'2 3.4
2018-Jul-08 14:30N 40°48' E 014°15'713.2
2018-Jul-08 14:00N 40°41' E 014°16'713.1
2018-Jul-08 13:30N 40°35' E 014°16'3 4.5
2018-Jul-08 12:55N 40°32' E 014°15'1 3.1
2018-Jul-08 12:29N 40°32' E 014°14'2 3.4
2018-Jul-08 12:00N 40°33' E 014°15'0 0.2
2018-Jul-08 11:31N 40°33' E 014°15'0 0.0
2018-Jul-08 11:00N 40°33' E 014°15'0 0.0
2018-Jul-08 10:31N 40°33' E 014°15'0 0.0
2018-Jul-08 10:00N 40°33' E 014°15'0 0.0
2018-Jul-08 09:30N 40°33' E 014°15'0 0.0
2018-Jul-08 09:00N 40°33' E 014°15'0 0.0
2018-Jul-08 08:30N 40°33' E 014°15'0 0.0
2018-Jul-08 08:00N 40°33' E 014°15'0 0.0
2018-Jul-08 07:30N 40°33' E 014°15'0 0.0
2018-Jul-08 07:00N 40°33' E 014°15'0 0.0
2018-Jul-08 06:30N 40°33' E 014°15'0 0.0
2018-Jul-08 06:00N 40°33' E 014°15'0 0.0
2018-Jul-08 05:30N 40°33' E 014°15'0 0.0
2018-Jul-08 05:01N 40°33' E 014°15'  
Track history (hours):
 
Tides and Currents Weather Stations Pressure Air Temp Water Temp Dewpoint Dewpoint Depression Visibility Wind Speed Wind Dir Waves Ship Positions

Grandillusion

Last reported at 2018-Jul-18 04:39 UTC. Time now 2018-Jul-18 14:33 UTC.
Position N 40°45' E 013°53'.

Length 42 m; draft 7.5 m.

Type: Pleasure craft. MMSI: 339498000.

Date/timePositionNaut miles runAvg speedWind from/ knotsBaromVisibWave heightAir tempDewpointWater temp
2018-Jul-18 04:39N 40°45' E 013°53'0 0.4
2018-Jul-18 04:31N 40°45' E 013°53'0 0.0
2018-Jul-18 04:00N 40°45' E 013°53'0 0.0
2018-Jul-18 03:25N 40°45' E 013°53'0 0.0
2018-Jul-18 02:59N 40°45' E 013°53'0 0.0
2018-Jul-18 02:30N 40°45' E 013°53'0 0.0
2018-Jul-18 01:56N 40°45' E 013°53'0 0.0
2018-Jul-18 01:29N 40°45' E 013°53'0 0.0
2018-Jul-18 01:00N 40°45' E 013°53'0 0.0
2018-Jul-18 00:30N 40°45' E 013°53'0 0.0
2018-Jul-17 23:58N 40°45' E 013°53'0 0.0
2018-Jul-17 23:27N 40°45' E 013°53'0 0.0
2018-Jul-17 22:57N 40°45' E 013°53'0 0.0
2018-Jul-17 22:29N 40°45' E 013°53'0 0.0
2018-Jul-17 22:00N 40°45' E 013°53'0 0.0
2018-Jul-17 21:30N 40°45' E 013°53'0 0.0
2018-Jul-17 15:21N 40°45' E 013°53'0 0.0
2018-Jul-17 14:59N 40°45' E 013°53'0 0.0
2018-Jul-17 14:29N 40°45' E 013°53'0 0.0
2018-Jul-17 13:58N 40°45' E 013°53'0 0.0
2018-Jul-17 13:30N 40°45' E 013°53'0 0.0
2018-Jul-17 13:00N 40°45' E 013°53'0 0.0
2018-Jul-17 12:30N 40°45' E 013°53'0 0.0
2018-Jul-17 12:00N 40°45' E 013°53'0 0.0
2018-Jul-17 11:30N 40°45' E 013°53'0 0.0
2018-Jul-17 11:00N 40°45' E 013°53'0 0.0
2018-Jul-17 10:30N 40°45' E 013°53'0 0.0
2018-Jul-17 10:00N 40°45' E 013°53'0 0.0
2018-Jul-17 09:30N 40°45' E 013°53'0 0.0
2018-Jul-17 09:00N 40°45' E 013°53'0 0.0
2018-Jul-17 08:29N 40°45' E 013°53'0 0.0
2018-Jul-17 07:57N 40°45' E 013°53'0 0.0
2018-Jul-17 07:29N 40°45' E 013°53'0 0.0
2018-Jul-17 06:59N 40°45' E 013°53'0 0.0
2018-Jul-17 06:30N 40°45' E 013°53'0 0.0
2018-Jul-17 06:00N 40°45' E 013°53'0 0.0
2018-Jul-17 05:30N 40°45' E 013°53'0 0.0
2018-Jul-17 05:00N 40°45' E 013°53'0 0.0
2018-Jul-17 04:30N 40°45' E 013°53'0 0.0
2018-Jul-17 04:00N 40°45' E 013°53'0 0.0
2018-Jul-17 03:30N 40°45' E 013°53'0 0.0
2018-Jul-17 03:00N 40°45' E 013°53'0 0.0
2018-Jul-17 02:30N 40°45' E 013°53'0 0.0
2018-Jul-17 02:00N 40°45' E 013°53'0 0.0
2018-Jul-17 01:29N 40°45' E 013°53'0 0.0
2018-Jul-17 00:59N 40°45' E 013°53'0 0.0
2018-Jul-17 00:30N 40°45' E 013°53'0 0.0
2018-Jul-16 23:30N 40°45' E 013°53'0 0.0
2018-Jul-16 23:00N 40°45' E 013°53'0 0.0
2018-Jul-16 22:30N 40°45' E 013°53'0 0.0
2018-Jul-16 22:00N 40°45' E 013°53'0 0.0
2018-Jul-16 21:30N 40°45' E 013°53'0 0.0
2018-Jul-16 21:00N 40°45' E 013°53'0 0.0
2018-Jul-16 20:31N 40°45' E 013°53'0 0.0
2018-Jul-16 20:00N 40°45' E 013°53'0 0.0
2018-Jul-16 19:30N 40°45' E 013°53'0 0.0
2018-Jul-16 19:00N 40°45' E 013°53'0 0.0
2018-Jul-16 18:30N 40°45' E 013°53'0 0.0
2018-Jul-16 18:01N 40°45' E 013°53'0 0.0
2018-Jul-16 17:30N 40°45' E 013°53'0 0.0
2018-Jul-16 17:01N 40°45' E 013°53'0 0.0
2018-Jul-16 16:30N 40°45' E 013°53'0 0.0
2018-Jul-16 16:00N 40°45' E 013°53'2 3.4
2018-Jul-16 15:30N 40°46' E 013°56'612.6
2018-Jul-16 15:00N 40°44' E 014°04'613.0
2018-Jul-16 14:30N 40°44' E 014°12'713.1
2018-Jul-16 14:00N 40°43' E 014°21'4 0.2
2018-Jul-15 17:23N 40°41' E 014°26'513.3
2018-Jul-15 17:00N 40°39' E 014°20'5 8.4
2018-Jul-15 16:28N 40°34' E 014°22'613.0
2018-Jul-15 16:01N 40°37' E 014°29'1 1.6
2018-Jul-15 15:30N 40°37' E 014°30'0 0.0
2018-Jul-15 15:00N 40°37' E 014°30'0 0.0
2018-Jul-15 14:30N 40°37' E 014°30'0 0.0
2018-Jul-15 14:00N 40°37' E 014°30'0 0.0
2018-Jul-15 13:30N 40°37' E 014°30'0 0.0
2018-Jul-15 13:00N 40°37' E 014°30'0 0.0
2018-Jul-15 12:30N 40°37' E 014°30'4 8.4
2018-Jul-15 12:00N 40°36' E 014°25'612.1
2018-Jul-15 11:30N 40°34' E 014°17'2 3.7
2018-Jul-15 11:00N 40°33' E 014°15'0 0.0
2018-Jul-15 10:30N 40°33' E 014°15'0 0.0
2018-Jul-15 10:00N 40°33' E 014°15'0 0.0
2018-Jul-15 09:29N 40°33' E 014°15'0 0.0
2018-Jul-15 09:00N 40°33' E 014°15'0 0.0
2018-Jul-15 08:30N 40°33' E 014°15'0 0.0
2018-Jul-15 08:00N 40°33' E 014°15'0 0.0
2018-Jul-15 07:30N 40°33' E 014°15'0 0.0
2018-Jul-15 07:00N 40°33' E 014°15'0 0.0
2018-Jul-15 06:31N 40°33' E 014°15'0 0.0
2018-Jul-15 06:00N 40°33' E 014°15'0 0.0
2018-Jul-15 05:29N 40°33' E 014°15'0 0.0
2018-Jul-15 05:00N 40°33' E 014°15'0 0.0
2018-Jul-15 04:30N 40°33' E 014°15'0 0.0
2018-Jul-15 04:00N 40°33' E 014°15'0 0.0
2018-Jul-15 03:30N 40°33' E 014°15'0 0.0
2018-Jul-15 03:00N 40°33' E 014°15'0 0.0
2018-Jul-15 02:30N 40°33' E 014°15'0 0.0
2018-Jul-15 02:00N 40°33' E 014°15'0 0.0
2018-Jul-15 01:30N 40°33' E 014°15'0 0.0
2018-Jul-15 01:00N 40°33' E 014°15'0 0.0
2018-Jul-15 00:30N 40°33' E 014°15'0 0.0
2018-Jul-15 00:00N 40°33' E 014°15'0 0.0
2018-Jul-14 23:28N 40°33' E 014°15'0 0.0
2018-Jul-14 23:00N 40°33' E 014°15'0 0.0
2018-Jul-14 22:30N 40°33' E 014°15'0 0.0
2018-Jul-14 22:00N 40°33' E 014°15'0 0.0
2018-Jul-14 21:30N 40°33' E 014°15'0 0.0
2018-Jul-14 21:00N 40°33' E 014°15'0 0.0
2018-Jul-14 20:30N 40°33' E 014°15'0 0.0
2018-Jul-14 20:00N 40°33' E 014°15'0 0.0
2018-Jul-14 19:30N 40°33' E 014°15'0 0.0
2018-Jul-14 19:01N 40°33' E 014°15'0 0.0
2018-Jul-14 18:30N 40°33' E 014°15'0 0.0
2018-Jul-14 18:00N 40°33' E 014°15'0 0.0
2018-Jul-14 17:30N 40°33' E 014°15'0 0.0
2018-Jul-14 17:00N 40°33' E 014°15'0 0.0
2018-Jul-14 16:30N 40°33' E 014°15'0 0.0
2018-Jul-14 15:59N 40°33' E 014°15'0 0.0
2018-Jul-14 15:30N 40°33' E 014°15'0 0.0
2018-Jul-14 15:00N 40°33' E 014°15'0 0.0
2018-Jul-14 14:30N 40°33' E 014°15'0 0.0
2018-Jul-14 13:30N 40°33' E 014°15'0 0.0
2018-Jul-14 13:01N 40°33' E 014°15'0 0.0
2018-Jul-14 12:30N 40°33' E 014°15'0 0.0
2018-Jul-14 12:00N 40°33' E 014°15'0 0.0
2018-Jul-14 11:30N 40°33' E 014°15'0 0.0
2018-Jul-14 11:00N 40°33' E 014°15'0 0.0
2018-Jul-14 10:30N 40°33' E 014°15'0 0.0
2018-Jul-14 10:00N 40°33' E 014°15'0 0.0
2018-Jul-14 09:30N 40°33' E 014°15'0 0.0
2018-Jul-14 09:00N 40°33' E 014°15'0 0.0
2018-Jul-14 08:31N 40°33' E 014°15'0 0.0
2018-Jul-14 08:00N 40°33' E 014°15'0 0.0
2018-Jul-14 07:30N 40°33' E 014°15'0 0.0
2018-Jul-14 07:00N 40°33' E 014°15'0 0.0
2018-Jul-14 06:30N 40°33' E 014°15'0 0.0
2018-Jul-14 06:00N 40°33' E 014°15'0 0.0
2018-Jul-14 05:30N 40°33' E 014°15'0 0.0
2018-Jul-14 05:00N 40°33' E 014°15'0 0.0
2018-Jul-14 04:30N 40°33' E 014°15'0 0.0
2018-Jul-14 04:00N 40°33' E 014°15'0 0.0
2018-Jul-14 03:31N 40°33' E 014°15'0 0.0
2018-Jul-14 03:00N 40°33' E 014°15'0 0.0
2018-Jul-14 02:31N 40°33' E 014°15'0 0.0
2018-Jul-14 02:00N 40°33' E 014°15'0 0.0
2018-Jul-14 01:30N 40°33' E 014°15'0 0.0
2018-Jul-14 01:00N 40°33' E 014°15'0 0.0
2018-Jul-14 00:30N 40°33' E 014°15'0 0.0
2018-Jul-14 00:00N 40°33' E 014°15'0 0.0
2018-Jul-13 23:31N 40°33' E 014°15'0 0.0
2018-Jul-13 23:00N 40°33' E 014°15'0 0.0
2018-Jul-13 22:30N 40°33' E 014°15'0 0.0
2018-Jul-13 22:00N 40°33' E 014°15'0 0.0
2018-Jul-13 21:31N 40°33' E 014°15'0 0.0
2018-Jul-13 21:00N 40°33' E 014°15'0 0.0
2018-Jul-13 20:30N 40°33' E 014°15'0 0.0
2018-Jul-13 19:58N 40°33' E 014°15'0 0.0
2018-Jul-13 19:30N 40°33' E 014°15'0 0.0
2018-Jul-13 19:00N 40°33' E 014°15'0 0.0
2018-Jul-13 18:30N 40°33' E 014°15'0 0.0
2018-Jul-13 18:00N 40°33' E 014°15'0 0.0
2018-Jul-13 17:30N 40°33' E 014°15'0 0.8
2018-Jul-13 16:59N 40°34' E 014°15'2 3.5
2018-Jul-13 16:30N 40°35' E 014°16'612.2
2018-Jul-13 16:00N 40°41' E 014°15'612.7
2018-Jul-13 15:30N 40°48' E 014°14'2 4.3
2018-Jul-13 15:00N 40°50' E 014°14'0 0.0
2018-Jul-13 14:30N 40°50' E 014°14'0 0.0
2018-Jul-13 13:30N 40°50' E 014°14'0 0.0
2018-Jul-13 13:00N 40°50' E 014°14'0 0.0
2018-Jul-13 12:30N 40°50' E 014°14'0 0.0
2018-Jul-13 11:59N 40°50' E 014°14'0 0.0
2018-Jul-13 11:30N 40°50' E 014°14'0 0.0
2018-Jul-13 11:01N 40°50' E 014°14'0 0.0
2018-Jul-13 10:30N 40°50' E 014°14'0 0.0
2018-Jul-13 10:00N 40°50' E 014°14'0 0.0
2018-Jul-13 09:30N 40°50' E 014°14'0 0.0
2018-Jul-13 09:00N 40°50' E 014°14'0 0.0
2018-Jul-13 08:29N 40°50' E 014°14'0 0.0
2018-Jul-13 08:01N 40°50' E 014°14'0 0.0
2018-Jul-13 07:30N 40°50' E 014°14'0 0.0
2018-Jul-13 07:00N 40°50' E 014°14'0 0.0
2018-Jul-13 06:29N 40°50' E 014°14'0 0.0
2018-Jul-13 06:00N 40°50' E 014°14'0 0.0
2018-Jul-13 05:30N 40°50' E 014°14'0 0.0
2018-Jul-13 05:00N 40°50' E 014°14'0 0.0
2018-Jul-13 04:30N 40°50' E 014°14'0 0.0
2018-Jul-13 04:00N 40°50' E 014°14'0 0.0
2018-Jul-13 03:30N 40°50' E 014°14'0 0.0
2018-Jul-13 03:01N 40°50' E 014°14'0 0.0
2018-Jul-13 02:30N 40°50' E 014°14'0 0.0
2018-Jul-13 02:00N 40°50' E 014°14'0 0.0
2018-Jul-13 01:30N 40°50' E 014°14'0 0.0
2018-Jul-13 01:00N 40°50' E 014°14'0 0.0
2018-Jul-13 00:30N 40°50' E 014°14'0 0.0
2018-Jul-13 00:00N 40°50' E 014°14'0 0.0
2018-Jul-12 23:30N 40°50' E 014°14'0 0.0
2018-Jul-12 23:01N 40°50' E 014°14'0 0.0
2018-Jul-12 22:30N 40°50' E 014°14'0 0.0
2018-Jul-12 21:58N 40°50' E 014°14'0 0.0
2018-Jul-12 21:30N 40°50' E 014°14'0 0.0
2018-Jul-12 21:00N 40°50' E 014°14'0 0.0
2018-Jul-12 20:30N 40°50' E 014°14'0 0.0
2018-Jul-12 19:59N 40°50' E 014°14'0 0.0
2018-Jul-12 19:31N 40°50' E 014°14'0 0.0
2018-Jul-12 18:59N 40°50' E 014°14'0 0.0
2018-Jul-12 18:30N 40°50' E 014°14'0 0.0
2018-Jul-12 18:00N 40°50' E 014°14'0 0.0
2018-Jul-12 17:31N 40°50' E 014°14'0 0.0
2018-Jul-12 17:00N 40°50' E 014°14'0 0.1
2018-Jul-12 16:31N 40°50' E 014°14'5 9.7
2018-Jul-12 16:01N 40°46' E 014°09'713.0
2018-Jul-12 15:30N 40°47' E 014°00'813.7
2018-Jul-12 14:57N 40°51' E 013°52'  
2018-Jul-10 01:43N 40°55' E 012°58'0 0.0
2018-Jul-10 01:27N 40°55' E 012°58'0 0.0
2018-Jul-10 00:58N 40°55' E 012°58'0 0.0
2018-Jul-10 00:22N 40°55' E 012°58'0 0.0
2018-Jul-10 00:00N 40°55' E 012°58'0 0.0
2018-Jul-09 23:31N 40°55' E 012°58'0 0.0
2018-Jul-09 23:00N 40°55' E 012°58'0 0.0
2018-Jul-09 22:30N 40°55' E 012°58'0 0.0
2018-Jul-09 22:00N 40°55' E 012°58'47 3.3
2018-Jul-09 07:39N 40°41' E 013°57'213.4
2018-Jul-09 07:30N 40°42' E 013°60'713.4
2018-Jul-09 07:00N 40°45' E 014°08'612.7
2018-Jul-09 06:30N 40°49' E 014°14'1 1.4
2018-Jul-09 06:00N 40°50' E 014°13'0 0.0
2018-Jul-09 05:30N 40°50' E 014°14'0 0.0
2018-Jul-09 05:00N 40°50' E 014°14'0 0.0
2018-Jul-09 04:30N 40°50' E 014°13'0 0.0
2018-Jul-09 04:00N 40°50' E 014°14'0 0.0
2018-Jul-09 03:30N 40°50' E 014°14'0 0.0
2018-Jul-09 03:01N 40°50' E 014°13'0 0.0
2018-Jul-09 02:30N 40°50' E 014°13'0 0.0
2018-Jul-09 02:00N 40°50' E 014°13'0 0.0
2018-Jul-09 01:30N 40°50' E 014°13'0 0.0
2018-Jul-09 01:00N 40°50' E 014°14'0 0.0
2018-Jul-09 00:30N 40°50' E 014°13'0 0.0
2018-Jul-09 00:00N 40°50' E 014°13'0 0.0
2018-Jul-08 23:31N 40°50' E 014°14'0 0.0
2018-Jul-08 23:00N 40°50' E 014°14'0 0.0
2018-Jul-08 22:31N 40°50' E 014°13'0 0.0
2018-Jul-08 22:00N 40°50' E 014°13'0 0.0
2018-Jul-08 21:30N 40°50' E 014°14'0 0.0
2018-Jul-08 21:00N 40°50' E 014°13'0 0.0
2018-Jul-08 20:30N 40°50' E 014°13'0 0.0
2018-Jul-08 20:01N 40°50' E 014°13'0 0.0
2018-Jul-08 19:31N 40°50' E 014°13'0 0.0
2018-Jul-08 19:01N 40°50' E 014°13'0 0.0
2018-Jul-08 18:30N 40°50' E 014°13'0 0.0
2018-Jul-08 18:00N 40°50' E 014°14'0 0.0
2018-Jul-08 17:31N 40°50' E 014°13'0 0.0
2018-Jul-08 17:00N 40°50' E 014°13'0 0.0
2018-Jul-08 16:30N 40°50' E 014°13'0 0.0
2018-Jul-08 16:00N 40°50' E 014°13'0 0.0
2018-Jul-08 15:31N 40°50' E 014°13'0 0.0
2018-Jul-08 15:00N 40°50' E 014°13'2 3.4
2018-Jul-08 14:30N 40°48' E 014°15'713.2
2018-Jul-08 14:00N 40°41' E 014°16'713.1
2018-Jul-08 13:30N 40°35' E 014°16'3 4.5
2018-Jul-08 12:55N 40°32' E 014°15'1 3.1
2018-Jul-08 12:29N 40°32' E 014°14'2 3.4
2018-Jul-08 12:00N 40°33' E 014°15'0 0.2
2018-Jul-08 11:31N 40°33' E 014°15'0 0.0
2018-Jul-08 11:00N 40°33' E 014°15'0 0.0
2018-Jul-08 10:31N 40°33' E 014°15'0 0.0
2018-Jul-08 10:00N 40°33' E 014°15'0 0.0
2018-Jul-08 09:30N 40°33' E 014°15'0 0.0
2018-Jul-08 09:00N 40°33' E 014°15'0 0.0
2018-Jul-08 08:30N 40°33' E 014°15'0 0.0
2018-Jul-08 08:00N 40°33' E 014°15'0 0.0
2018-Jul-08 07:30N 40°33' E 014°15'0 0.0
2018-Jul-08 07:00N 40°33' E 014°15'0 0.0
2018-Jul-08 06:30N 40°33' E 014°15'0 0.0
2018-Jul-08 06:00N 40°33' E 014°15'0 0.0
2018-Jul-08 05:30N 40°33' E 014°15'0 0.0
2018-Jul-08 05:01N 40°33' E 014°15'  

Dump ship's entire track history